createdAt,value
2019-02-20T00:00:04.945Z,136.28
2019-02-20T00:02:33.599Z,135.80
2019-02-20T00:05:00.578Z,134.95
2019-02-20T00:07:27.535Z,134.97
2019-02-20T00:09:54.494Z,136.03
2019-02-20T00:12:21.415Z,135.05
2019-02-20T00:14:48.380Z,136.18
2019-02-20T00:17:15.330Z,136.85
2019-02-20T00:19:42.212Z,136.03
2019-02-20T00:22:09.056Z,134.35
2019-02-20T00:24:35.927Z,135.37
2019-02-20T00:27:02.710Z,134.43
2019-02-20T00:29:29.585Z,135.43
2019-02-20T00:31:56.453Z,135.70
2019-02-20T00:34:23.211Z,135.18
2019-02-20T00:36:50.220Z,136.60
2019-02-20T00:39:18.188Z,136.45
2019-02-20T00:41:45.170Z,135.22
2019-02-20T00:44:40.533Z,135.30
2019-02-20T00:47:19.935Z,134.27
2019-02-20T00:49:48.739Z,137.30
2019-02-20T00:52:49.638Z,135.68
2019-02-20T00:55:10.078Z,136.90
2019-02-20T00:57:36.929Z,135.85
2019-02-20T01:00:04.475Z,136.00
2019-02-20T01:02:31.610Z,136.57
2019-02-20T01:04:58.453Z,136.57
2019-02-20T01:07:26.547Z,137.82
2019-02-20T01:09:53.369Z,137.62
2019-02-20T01:12:20.528Z,136.92
2019-02-20T01:14:47.304Z,136.85
2019-02-20T01:17:14.142Z,136.12
2019-02-20T01:19:40.907Z,137.30
2019-02-20T01:22:07.643Z,137.50
2019-02-20T01:24:34.397Z,138.18
2019-02-20T01:27:01.240Z,138.32
2019-02-20T01:29:28.131Z,139.05
2019-02-20T01:31:54.912Z,138.22
2019-02-20T01:34:21.863Z,138.90
2019-02-20T01:36:48.620Z,138.52
2019-02-20T01:39:15.547Z,138.22
2019-02-20T01:41:43.581Z,137.80
2019-02-20T01:44:10.379Z,138.15
2019-02-20T01:46:37.135Z,139.75
2019-02-20T01:49:03.884Z,136.82
2019-02-20T01:51:31.079Z,138.62
2019-02-20T01:53:58.115Z,138.03
2019-02-20T01:56:24.866Z,139.88
2019-02-20T01:58:51.740Z,138.97
2019-02-20T02:01:18.591Z,140.28
2019-02-20T02:03:45.469Z,138.15
2019-02-20T02:06:12.320Z,139.40
2019-02-20T02:08:39.173Z,138.97
2019-02-20T02:11:05.910Z,140.18
2019-02-20T02:13:32.659Z,139.70
2019-02-20T02:15:59.398Z,138.70
2019-02-20T02:18:27.335Z,137.47
2019-02-20T02:20:54.216Z,139.25
2019-02-20T02:23:21.021Z,138.43
2019-02-20T02:25:47.986Z,138.82
2019-02-20T02:28:16.111Z,139.30
2019-02-20T02:30:42.859Z,139.47
2019-02-20T02:33:09.610Z,139.25
2019-02-20T02:35:36.587Z,138.43
2019-02-20T02:38:03.329Z,138.72
2019-02-20T02:40:30.092Z,138.80
2019-02-20T02:42:56.842Z,139.18
2019-02-20T02:45:23.733Z,138.90
2019-02-20T02:47:50.560Z,139.03
2019-02-20T02:50:17.472Z,139.90
2019-02-20T02:52:44.318Z,139.43
2019-02-20T02:55:11.163Z,138.57
2019-02-20T02:57:38.122Z,138.40
2019-02-20T03:00:05.227Z,138.72
2019-02-20T03:02:33.886Z,137.75
2019-02-20T03:05:00.764Z,137.37
2019-02-20T03:07:28.090Z,138.90
2019-02-20T03:09:54.825Z,140.12
2019-02-20T03:12:21.575Z,138.25
2019-02-20T03:14:48.762Z,138.60
2019-02-20T03:17:15.734Z,139.57
2019-02-20T03:19:42.482Z,138.88
2019-02-20T03:22:09.223Z,138.18
2019-02-20T03:24:35.960Z,139.30
2019-02-20T03:27:02.751Z,137.82
2019-02-20T03:29:29.809Z,138.30
2019-02-20T03:31:56.649Z,137.62
2019-02-20T03:34:23.628Z,137.47
2019-02-20T03:36:50.377Z,138.22
2019-02-20T03:39:17.274Z,139.35
2019-02-20T03:41:44.043Z,139.03
2019-02-20T03:44:11.090Z,138.88
2019-02-20T03:46:37.837Z,138.55
2019-02-20T03:49:05.813Z,139.90
2019-02-20T03:51:32.537Z,138.03
2019-02-20T03:53:59.408Z,138.95
2019-02-20T03:56:26.266Z,137.20
2019-02-20T03:58:53.139Z,136.95
2019-02-20T04:01:19.963Z,136.52
2019-02-20T04:03:46.849Z,137.52
2019-02-20T04:06:13.595Z,137.00
2019-02-20T04:08:41.630Z,138.00
2019-02-20T04:11:08.636Z,136.37
2019-02-20T04:13:35.384Z,137.18
2019-02-20T04:16:02.136Z,143.87
2019-02-20T04:18:29.016Z,137.52
2019-02-20T04:20:55.938Z,139.30
2019-02-20T04:23:22.809Z,138.03
2019-02-20T04:25:49.662Z,138.70
2019-02-20T04:28:16.419Z,138.40
2019-02-20T04:30:43.377Z,138.65
2019-02-20T04:33:10.156Z,137.10
2019-02-20T04:35:37.100Z,138.92
2019-02-20T04:38:03.938Z,138.68
2019-02-20T04:40:30.823Z,139.22
2019-02-20T04:42:58.509Z,138.75
2019-02-20T04:45:25.426Z,138.12
2019-02-20T04:47:52.181Z,138.92
2019-02-20T04:50:19.011Z,138.72
2019-02-20T04:52:45.942Z,138.68
2019-02-20T04:55:12.745Z,139.12
2019-02-20T04:57:39.606Z,138.05
2019-02-20T05:00:10.057Z,138.22
2019-02-20T05:02:36.916Z,140.73
2019-02-20T05:05:03.675Z,140.45
2019-02-20T05:07:30.636Z,140.68
2019-02-20T05:09:57.514Z,139.72
2019-02-20T05:12:24.245Z,140.05
2019-02-20T05:14:51.019Z,140.45
2019-02-20T05:17:17.784Z,139.40
2019-02-20T05:19:44.879Z,141.05
2019-02-20T05:22:11.733Z,140.77
2019-02-20T05:24:38.565Z,142.72
2019-02-20T05:27:05.286Z,141.95
2019-02-20T05:29:32.237Z,143.25
2019-02-20T05:32:00.800Z,142.47
2019-02-20T05:34:27.616Z,142.00
2019-02-20T05:36:54.637Z,142.90
2019-02-20T05:39:21.609Z,142.98
2019-02-20T05:41:48.451Z,141.92
2019-02-20T05:44:15.258Z,142.45
2019-02-20T05:46:42.179Z,143.25
2019-02-20T05:49:08.931Z,142.40
2019-02-20T05:51:35.792Z,143.72
2019-02-20T05:54:02.590Z,144.70
2019-02-20T05:56:29.548Z,141.73
2019-02-20T05:59:14.715Z,143.52
2019-02-20T06:02:08.584Z,143.55
2019-02-20T06:04:36.498Z,144.40
2019-02-20T06:07:03.298Z,145.32
2019-02-20T06:09:30.356Z,143.50
2019-02-20T06:11:57.109Z,144.30
2019-02-20T06:14:23.995Z,142.20
2019-02-20T06:16:50.783Z,143.15
2019-02-20T06:19:17.519Z,144.93
2019-02-20T06:21:44.341Z,143.85
2019-02-20T06:24:11.085Z,144.62
2019-02-20T06:26:37.823Z,143.07
2019-02-20T06:29:04.824Z,143.20
2019-02-20T06:31:31.776Z,142.90
2019-02-20T06:33:58.525Z,142.68
2019-02-20T06:36:25.392Z,144.57
2019-02-20T06:38:52.254Z,145.00
2019-02-20T06:41:19.233Z,144.37
2019-02-20T06:43:48.117Z,145.62
2019-02-20T06:46:14.967Z,144.35
2019-02-20T06:48:41.965Z,144.70
2019-02-20T06:51:08.758Z,147.80
2019-02-20T06:53:35.699Z,147.22
2019-02-20T06:56:02.548Z,149.75
2019-02-20T06:58:29.325Z,147.32
2019-02-20T07:00:56.086Z,146.90
2019-02-20T07:03:23.255Z,146.10
2019-02-20T07:05:56.497Z,146.70
2019-02-20T07:09:04.761Z,144.13
2019-02-20T07:12:24.804Z,144.15
2019-02-20T07:15:39.627Z,145.10
2019-02-20T07:19:03.821Z,145.38
2019-02-20T07:22:03.328Z,143.85
2019-02-20T07:25:02.660Z,144.87
2019-02-20T07:28:02.165Z,145.22
2019-02-20T07:30:29.141Z,143.52
2019-02-20T07:32:55.991Z,144.07
2019-02-20T07:35:22.951Z,143.28
2019-02-20T07:37:49.942Z,143.68
2019-02-20T07:40:16.895Z,146.05
2019-02-20T07:42:43.871Z,145.95
2019-02-20T07:45:13.451Z,145.80
2019-02-20T07:47:40.402Z,148.28
2019-02-20T07:50:08.944Z,148.43
2019-02-20T07:52:36.227Z,148.28
2019-02-20T07:55:12.666Z,150.40
2019-02-20T07:57:31.860Z,149.40
2019-02-20T07:59:58.854Z,149.85
2019-02-20T08:02:25.703Z,149.68
2019-02-20T08:04:52.581Z,150.53
2019-02-20T08:07:19.474Z,148.78
2019-02-20T08:09:46.320Z,148.93
2019-02-20T08:12:13.069Z,150.50
2019-02-20T08:14:39.964Z,150.53
2019-02-20T08:17:06.826Z,150.57
2019-02-20T08:19:34.881Z,147.60
2019-02-20T08:22:01.697Z,148.32
2019-02-20T08:24:29.798Z,151.12
2019-02-20T08:26:56.780Z,152.32
2019-02-20T08:29:23.696Z,152.82
2019-02-20T08:31:50.549Z,154.42
2019-02-20T08:34:17.394Z,153.55
2019-02-20T08:36:44.379Z,155.90
2019-02-20T08:39:11.325Z,154.97
2019-02-20T08:41:38.354Z,155.20
2019-02-20T08:44:05.177Z,155.70
2019-02-20T08:46:31.916Z,154.93
2019-02-20T08:48:58.658Z,154.12
2019-02-20T08:51:25.461Z,156.30
2019-02-20T08:53:52.308Z,156.57
2019-02-20T08:56:19.093Z,153.87
2019-02-20T08:58:46.050Z,155.32
2019-02-20T09:01:12.821Z,155.22
2019-02-20T09:03:39.575Z,154.95
2019-02-20T09:06:06.354Z,154.32
2019-02-20T09:09:58.598Z,153.18
2019-02-20T09:12:54.393Z,155.57
2019-02-20T09:15:24.782Z,153.18
2019-02-20T09:17:51.630Z,154.63
2019-02-20T09:20:18.476Z,154.25
2019-02-20T09:22:45.339Z,154.15
2019-02-20T09:25:19.445Z,154.57
2019-02-20T09:27:40.936Z,153.78
2019-02-20T09:30:10.907Z,154.70
2019-02-20T09:32:37.783Z,154.50
2019-02-20T09:35:05.484Z,154.90
2019-02-20T09:37:32.423Z,153.87
2019-02-20T09:39:59.170Z,155.20
2019-02-20T09:42:26.599Z,155.27
2019-02-20T09:44:53.345Z,154.32
2019-02-20T09:47:20.098Z,156.55
2019-02-20T09:52:13.520Z,156.55
2019-02-20T09:54:40.394Z,156.82
2019-02-20T09:57:07.350Z,156.32
2019-02-20T09:59:34.335Z,158.07
2019-02-20T10:02:01.393Z,156.00
2019-02-20T10:04:29.024Z,155.03
2019-02-20T10:06:55.778Z,155.32
2019-02-20T10:09:22.644Z,153.35
2019-02-20T10:11:49.832Z,154.60
2019-02-20T10:14:16.819Z,153.75
2019-02-20T10:16:44.873Z,155.93
2019-02-20T10:19:11.833Z,155.93
2019-02-20T10:21:38.835Z,156.78
2019-02-20T10:24:05.590Z,156.25
2019-02-20T10:26:33.437Z,155.80
2019-02-20T10:29:01.631Z,155.97
2019-02-20T10:31:28.532Z,156.65
2019-02-20T10:33:55.492Z,156.15
2019-02-20T10:36:22.328Z,155.07
2019-02-20T10:38:49.143Z,157.30
2019-02-20T10:41:16.038Z,157.22
2019-02-20T10:43:42.793Z,156.25
2019-02-20T10:46:09.668Z,154.80
2019-02-20T10:48:36.545Z,154.93
2019-02-20T10:51:03.300Z,156.67
2019-02-20T10:53:31.472Z,155.50
2019-02-20T10:55:58.319Z,154.95
2019-02-20T10:58:25.364Z,157.37
2019-02-20T11:00:53.218Z,156.18
2019-02-20T11:03:20.074Z,156.20
2019-02-20T11:05:46.880Z,162.18
2019-02-20T11:08:13.725Z,156.60
2019-02-20T11:10:40.583Z,156.05
2019-02-20T11:13:07.557Z,158.97
2019-02-20T11:15:34.414Z,158.15
2019-02-20T11:18:01.188Z,159.00
2019-02-20T11:20:28.169Z,157.82
2019-02-20T11:22:55.026Z,155.70
2019-02-20T11:25:21.766Z,155.37
2019-02-20T11:27:48.743Z,156.70
2019-02-20T11:30:24.959Z,158.40
2019-02-20T11:32:56.623Z,154.25
2019-02-20T11:35:23.348Z,153.82
2019-02-20T11:37:50.111Z,153.20
2019-02-20T11:40:16.892Z,155.05
2019-02-20T11:42:43.851Z,155.03
2019-02-20T11:45:10.952Z,153.93
2019-02-20T11:47:39.816Z,155.78
2019-02-20T11:50:08.150Z,153.85
2019-02-20T11:52:38.310Z,153.82
2019-02-20T11:55:05.507Z,155.07
2019-02-20T11:57:32.567Z,150.95
2019-02-20T11:59:59.325Z,153.68
2019-02-20T12:02:27.349Z,153.90
2019-02-20T12:04:54.158Z,152.75
2019-02-20T12:07:21.089Z,154.20
2019-02-20T12:09:48.081Z,154.85
2019-02-20T12:12:17.922Z,154.05
2019-02-20T12:14:44.751Z,153.45
2019-02-20T12:17:11.509Z,150.65
2019-02-20T12:19:39.419Z,151.47
2019-02-20T12:22:06.306Z,153.02
2019-02-20T12:24:33.220Z,154.53
2019-02-20T12:26:59.968Z,152.43
2019-02-20T12:29:26.932Z,151.05
2019-02-20T12:34:33.739Z,151.27
2019-02-20T12:37:00.526Z,151.72
2019-02-20T12:39:27.815Z,150.32
2019-02-20T12:41:54.766Z,152.15
2019-02-20T12:44:24.849Z,151.10
2019-02-20T12:46:52.249Z,150.30
2019-02-20T12:49:19.232Z,152.30
2019-02-20T12:51:47.187Z,149.95
2019-02-20T12:54:14.049Z,149.57
2019-02-20T12:56:43.987Z,148.82
2019-02-20T12:59:09.886Z,150.53
2019-02-20T13:01:40.872Z,147.87
2019-02-20T13:04:07.812Z,149.57
2019-02-20T13:06:34.715Z,148.15
2019-02-20T13:09:01.532Z,149.27
2019-02-20T13:11:34.304Z,148.80
2019-02-20T13:14:01.591Z,147.72
2019-02-20T13:16:28.969Z,147.75
2019-02-20T13:18:55.850Z,148.45
2019-02-20T13:21:22.642Z,147.95
2019-02-20T13:23:49.895Z,149.50
2019-02-20T13:26:16.653Z,149.72
2019-02-20T13:28:43.417Z,149.27
2019-02-20T13:31:10.387Z,148.90
2019-02-20T13:33:37.366Z,148.50
2019-02-20T13:36:04.257Z,147.57
2019-02-20T13:38:31.271Z,148.70
2019-02-20T13:40:58.240Z,148.20
2019-02-20T13:43:25.595Z,147.72
2019-02-20T13:45:52.449Z,147.75
2019-02-20T13:48:19.206Z,146.80
2019-02-20T13:50:46.992Z,148.68
2019-02-20T13:53:14.338Z,149.60
2019-02-20T13:55:41.412Z,151.63
2019-02-20T13:58:08.478Z,150.97
2019-02-20T14:00:35.382Z,151.82
2019-02-20T14:03:02.886Z,151.05
2019-02-20T14:05:30.099Z,152.00
2019-02-20T14:08:00.681Z,151.00
2019-02-20T14:10:27.685Z,150.72
2019-02-20T14:12:54.456Z,151.20
2019-02-20T14:15:21.338Z,150.05
2019-02-20T14:17:48.225Z,151.37
2019-02-20T14:20:15.132Z,150.45
2019-02-20T14:22:42.078Z,150.70
2019-02-20T14:25:08.886Z,151.97
2019-02-20T14:27:35.647Z,149.23
2019-02-20T14:30:03.074Z,151.75
2019-02-20T14:32:31.799Z,152.17
2019-02-20T14:34:58.600Z,149.87
2019-02-20T14:37:25.342Z,150.27
2019-02-20T14:39:52.820Z,150.80
2019-02-20T14:42:19.762Z,148.60
2019-02-20T14:44:46.545Z,150.40
2019-02-20T14:47:13.338Z,148.82
2019-02-20T14:49:41.878Z,151.27
2019-02-20T14:52:18.630Z,148.72
2019-02-20T14:54:45.796Z,150.45
2019-02-20T14:57:19.360Z,149.23
2019-02-20T14:59:41.806Z,151.25
2019-02-20T15:02:09.508Z,147.85
2019-02-20T15:04:54.196Z,148.65
2019-02-20T15:07:27.018Z,148.07
2019-02-20T15:09:55.667Z,147.72
2019-02-20T15:12:22.980Z,148.13
2019-02-20T15:14:49.991Z,147.72
2019-02-20T15:17:16.879Z,148.55
2019-02-20T15:19:43.726Z,149.10
2019-02-20T15:22:10.565Z,147.70
2019-02-20T15:24:38.569Z,148.50
2019-02-20T15:27:06.353Z,148.20
2019-02-20T15:29:33.167Z,148.72
2019-02-20T15:32:00.047Z,148.13
2019-02-20T15:34:26.891Z,148.32
2019-02-20T15:36:53.654Z,148.07
2019-02-20T15:39:20.547Z,148.60
2019-02-20T15:41:47.283Z,148.00
2019-02-20T15:44:14.036Z,148.60
2019-02-20T15:46:41.040Z,148.15
2019-02-20T15:49:07.770Z,149.02
2019-02-20T15:51:34.620Z,148.35
2019-02-20T15:54:01.624Z,148.47
2019-02-20T15:56:30.684Z,148.30
2019-02-20T15:58:57.540Z,147.37
2019-02-20T16:01:26.134Z,147.50
2019-02-20T16:03:52.866Z,147.28
2019-02-20T16:06:19.914Z,147.28
2019-02-20T16:08:46.790Z,147.30
2019-02-20T16:11:13.523Z,147.50
2019-02-20T16:13:41.453Z,147.17
2019-02-20T16:16:08.462Z,147.22
2019-02-20T16:18:35.346Z,146.28
2019-02-20T16:21:02.252Z,146.90
2019-02-20T16:23:31.124Z,147.00
2019-02-20T16:26:02.274Z,146.70
2019-02-20T16:28:33.836Z,145.77
2019-02-20T16:30:58.082Z,145.43
2019-02-20T16:33:24.842Z,145.38
2019-02-20T16:35:53.381Z,145.32
2019-02-20T16:38:20.399Z,145.77
2019-02-20T16:40:49.664Z,146.30
2019-02-20T16:43:16.809Z,145.07
2019-02-20T16:45:43.701Z,145.85
2019-02-20T16:48:10.463Z,144.70
2019-02-20T16:50:37.290Z,143.07
2019-02-20T16:53:07.889Z,145.25
2019-02-20T16:55:34.663Z,144.32
2019-02-20T16:58:01.410Z,144.68
2019-02-20T17:00:28.686Z,143.87
2019-02-20T17:02:55.442Z,143.62
2019-02-20T17:05:22.317Z,143.45
2019-02-20T17:07:49.282Z,145.20
2019-02-20T17:10:16.377Z,144.15
2019-02-20T17:12:43.324Z,144.32
2019-02-20T17:15:10.605Z,143.90
2019-02-20T17:17:37.459Z,152.43
2019-02-20T17:20:05.834Z,165.65
2019-02-20T17:22:32.767Z,160.65
2019-02-20T17:24:59.512Z,152.82
2019-02-20T17:27:27.414Z,145.25
2019-02-20T17:29:54.197Z,146.53
2019-02-20T17:32:21.228Z,143.80
2019-02-20T17:34:47.970Z,145.43
2019-02-20T17:37:14.856Z,146.80
2019-02-20T17:39:43.296Z,157.47
2019-02-20T17:42:10.274Z,159.37
2019-02-20T17:44:37.030Z,158.80
2019-02-20T17:47:04.096Z,149.27
2019-02-20T17:49:31.140Z,144.60
2019-02-20T17:51:57.892Z,158.85
2019-02-20T17:54:24.772Z,155.95
2019-02-20T17:56:51.934Z,146.87
2019-02-20T17:59:18.854Z,144.10
2019-02-20T18:01:46.040Z,141.77
2019-02-20T18:04:12.786Z,142.25
2019-02-20T18:06:39.716Z,141.75
2019-02-20T18:09:06.711Z,140.43
2019-02-20T18:11:36.873Z,141.22
2019-02-20T18:14:03.724Z,141.30
2019-02-20T18:16:30.892Z,143.52
2019-02-20T18:18:59.757Z,140.97
2019-02-20T18:21:26.530Z,143.13
2019-02-20T18:23:53.391Z,141.95
2019-02-20T18:26:20.309Z,142.05
2019-02-20T18:28:47.191Z,143.87
2019-02-20T18:31:14.035Z,144.53
2019-02-20T18:33:41.014Z,143.32
2019-02-20T18:36:07.795Z,143.40
2019-02-20T18:38:34.510Z,143.35
2019-02-20T18:41:01.252Z,142.43
2019-02-20T18:43:28.008Z,142.60
2019-02-20T18:45:55.064Z,142.53
2019-02-20T18:48:21.863Z,142.28
2019-02-20T18:50:48.885Z,142.10
2019-02-20T18:53:15.721Z,142.15
2019-02-20T18:55:43.781Z,142.28
2019-02-20T18:58:10.905Z,142.47
2019-02-20T19:00:39.440Z,141.97
2019-02-20T19:03:06.415Z,142.28
2019-02-20T19:05:33.840Z,143.10
2019-02-20T19:08:22.537Z,142.20
2019-02-20T19:10:55.582Z,143.13
2019-02-20T19:13:57.357Z,142.43
2019-02-20T19:16:52.229Z,147.20
2019-02-20T19:19:36.174Z,145.40
2019-02-20T19:22:48.463Z,152.07
2019-02-20T19:25:57.049Z,149.93
2019-02-20T19:28:55.152Z,151.72
2019-02-20T19:32:18.148Z,143.97
2019-02-20T19:34:53.296Z,142.77
2019-02-20T19:37:33.344Z,142.40
2019-02-20T19:40:57.196Z,141.85
2019-02-20T19:44:03.227Z,147.25
2019-02-20T19:47:22.484Z,144.77
2019-02-20T19:50:20.625Z,143.70
2019-02-20T19:53:19.958Z,145.10
2019-02-20T19:56:44.232Z,144.37
2019-02-20T20:00:08.147Z,144.13
2019-02-20T20:03:13.351Z,143.90
2019-02-20T20:06:19.185Z,142.90
2019-02-20T20:09:29.269Z,141.37
2019-02-20T20:12:35.272Z,141.10
2019-02-20T20:15:25.511Z,142.47
2019-02-20T20:18:22.307Z,140.60
2019-02-20T20:21:27.642Z,141.90
2019-02-20T20:24:44.779Z,140.70
2019-02-20T20:27:26.878Z,140.35
2019-02-20T20:30:34.168Z,140.73
2019-02-20T20:33:35.589Z,140.75
2019-02-20T20:36:44.717Z,140.85
2019-02-20T20:39:50.996Z,140.25
2019-02-20T20:42:55.826Z,141.88
2019-02-20T20:45:42.303Z,142.07
2019-02-20T20:48:32.549Z,139.30
2019-02-20T20:51:44.447Z,141.75
2019-02-20T20:54:49.514Z,143.45
2019-02-20T20:57:34.708Z,145.82
2019-02-20T21:00:40.490Z,144.80
2019-02-20T21:03:10.579Z,149.30
2019-02-20T21:06:01.083Z,143.00
2019-02-20T21:09:21.886Z,143.40
2019-02-20T21:12:44.930Z,141.50
2019-02-20T21:15:44.902Z,139.45
2019-02-20T21:18:35.156Z,140.10
2019-02-20T21:21:19.011Z,138.68
2019-02-20T21:24:23.686Z,138.57
2019-02-20T21:27:29.211Z,138.40
2019-02-20T21:30:36.978Z,137.82
2019-02-20T21:33:48.875Z,138.90
2019-02-20T21:37:00.939Z,136.80
2019-02-20T21:39:47.713Z,137.37
2019-02-20T21:42:52.744Z,136.52
2019-02-20T21:45:59.405Z,136.88
2019-02-20T21:48:55.393Z,136.80
2019-02-20T21:52:08.086Z,137.62
2019-02-20T21:55:09.055Z,136.92
2019-02-20T21:58:15.528Z,137.85
2019-02-20T22:01:21.991Z,138.18
2019-02-20T22:04:17.442Z,137.88
2019-02-20T22:07:16.811Z,138.00
2019-02-20T22:10:01.100Z,138.07
2019-02-20T22:12:54.850Z,137.90
2019-02-20T22:16:02.706Z,137.43
2019-02-20T22:19:01.708Z,137.22
2019-02-20T22:22:07.994Z,137.47
2019-02-20T22:25:22.871Z,137.92
2019-02-20T22:28:26.484Z,136.22
2019-02-20T22:31:41.404Z,137.57
2019-02-20T22:34:46.156Z,136.22
2019-02-20T22:37:51.924Z,135.97
2019-02-20T22:40:49.006Z,136.75
2019-02-20T22:43:41.771Z,137.43
2019-02-20T22:46:16.864Z,137.60
2019-02-20T22:49:31.607Z,137.88
2019-02-20T22:52:53.699Z,136.12
2019-02-20T22:55:36.367Z,137.85
2019-02-20T22:58:19.782Z,138.43
2019-02-20T23:01:34.210Z,138.07
2019-02-20T23:04:24.199Z,138.60
2019-02-20T23:07:05.771Z,138.12
2019-02-20T23:09:42.592Z,151.35
2019-02-20T23:12:30.970Z,146.45
2019-02-20T23:14:57.941Z,142.05
2019-02-20T23:17:27.126Z,140.18
2019-02-20T23:19:54.258Z,142.00
2019-02-20T23:22:21.010Z,141.62
2019-02-20T23:24:49.133Z,141.35
2019-02-20T23:27:16.378Z,140.68
2019-02-20T23:29:43.921Z,141.22
2019-02-20T23:32:10.772Z,141.37
2019-02-20T23:34:37.666Z,142.75
2019-02-20T23:37:04.702Z,142.13
2019-02-20T23:39:31.445Z,141.12
2019-02-20T23:41:58.411Z,141.18
2019-02-20T23:44:25.142Z,139.82
2019-02-20T23:46:51.992Z,143.50
2019-02-20T23:49:18.875Z,141.82
2019-02-20T23:51:45.722Z,138.70
2019-02-20T23:54:12.486Z,139.90
2019-02-20T23:56:39.401Z,140.97
2019-02-20T23:59:06.168Z,140.77
